Time;durP1;ratioP1;P1;durP2;ratioP2;P2;SDS_P1;SDS_P2;PMS_P1;PMS_P2;Temp;Humidity;BMP_temperature;BMP_pressure;BME280_temperature;BME280_humidity;BME280_pressure;Samples;Min_cycle;Max_cycle;Signal;HPM_P1;HPM_P2
2022/05/04 00:01:58;;;;;;;;;;;23.60;42.40;;;;;;1576322;73;756;-65
2022/05/04 00:04:00;;;;;;;;;;;23.60;42.50;;;;;;1584947;74;722;-65
2022/05/04 00:06:02;;;;;;;;;;;23.60;42.50;;;;;;1580188;74;801;-65
2022/05/04 00:08:04;;;;;;;;;;;23.70;42.60;;;;;;1575337;73;783;-65
2022/05/04 00:10:06;;;;;;;;;;;23.60;42.50;;;;;;1581155;73;659;-66
2022/05/04 00:12:09;;;;;;;;;;;23.60;42.50;;;;;;1588617;74;1938;-65
2022/05/04 00:14:11;;;;;;;;;;;23.60;42.50;;;;;;1574515;73;634;-65
2022/05/04 00:16:12;;;;;;;;;;;23.60;42.50;;;;;;1575255;73;737;-66
2022/05/04 00:18:14;;;;;;;;;;;23.60;42.50;;;;;;1589805;74;1164;-65
2022/05/04 00:20:16;;;;;;;;;;;23.60;42.50;;;;;;1582224;73;725;-66
2022/05/04 00:22:18;;;;;;;;;;;23.50;42.50;;;;;;1579908;74;668;-66
2022/05/04 00:24:20;;;;;;;;;;;23.60;42.50;;;;;;1579823;73;661;-66
2022/05/04 00:26:22;;;;;;;;;;;23.60;42.50;;;;;;1582401;73;1553;-66
2022/05/04 00:28:24;;;;;;;;;;;23.50;42.60;;;;;;1590747;73;1136;-65
2022/05/04 00:30:26;;;;;;;;;;;23.50;42.60;;;;;;1597235;73;778;-67
2022/05/04 00:32:28;;;;;;;;;;;23.60;42.60;;;;;;1588351;73;1917;-64
2022/05/04 00:34:30;;;;;;;;;;;23.60;42.60;;;;;;1595582;73;933;-66
2022/05/04 00:36:32;;;;;;;;;;;23.60;42.60;;;;;;1568612;73;792;-64
2022/05/04 00:38:34;;;;;;;;;;;23.50;42.70;;;;;;1577785;74;1147;-66
2022/05/04 00:40:36;;;;;;;;;;;23.50;42.60;;;;;;1573759;74;1563;-66
2022/05/04 00:42:38;;;;;;;;;;;23.60;42.60;;;;;;1574374;73;820;-66
2022/05/04 00:44:40;;;;;;;;;;;23.50;42.60;;;;;;1577988;74;762;-65
2022/05/04 00:46:42;;;;;;;;;;;23.50;42.60;;;;;;1570061;73;784;-67
2022/05/04 00:48:44;;;;;;;;;;;23.60;42.60;;;;;;1575344;73;1156;-65
2022/05/04 00:50:45;;;;;;;;;;;23.50;42.60;;;;;;1577687;74;733;-66
2022/05/04 00:52:48;;;;;;;;;;;23.50;42.50;;;;;;1571354;74;1922;-64
2022/05/04 00:54:50;;;;;;;;;;;23.50;42.60;;;;;;1580392;73;1505;-66
2022/05/04 00:56:52;;;;;;;;;;;23.60;42.50;;;;;;1577154;74;869;-66
2022/05/04 00:58:57;;;;;;;;;;;23.50;42.50;;;;;;1592298;73;1151;-66
2022/05/04 01:01:01;;;;;;;;;;;23.50;42.50;;;;;;1576301;74;785;-65
2022/05/04 01:03:03;;;;;;;;;;;23.60;42.50;;;;;;1572354;74;647;-65
2022/05/04 01:05:09;;;;;;;;;;;23.60;42.40;;;;;;1584398;74;702;-65
2022/05/04 01:07:09;;;;;;;;;;;23.50;42.50;;;;;;1587838;74;1782;-66
2022/05/04 01:09:11;;;;;;;;;;;23.60;42.40;;;;;;1575886;73;3021;-67
2022/05/04 01:11:13;;;;;;;;;;;23.60;42.50;;;;;;1553193;75;764;-67
2022/05/04 01:13:17;;;;;;;;;;;23.50;42.50;;;;;;1548466;75;1939;-67
2022/05/04 01:15:19;;;;;;;;;;;23.50;42.60;;;;;;1548567;75;1134;-68
2022/05/04 01:17:21;;;;;;;;;;;23.50;42.60;;;;;;1543481;75;736;-68
2022/05/04 01:19:23;;;;;;;;;;;23.50;42.60;;;;;;1565321;75;1217;-67
2022/05/04 01:21:25;;;;;;;;;;;23.50;42.50;;;;;;1568131;76;592;-68
2022/05/04 01:23:27;;;;;;;;;;;23.50;42.60;;;;;;1568371;74;1447;-67
2022/05/04 01:25:29;;;;;;;;;;;23.50;42.60;;;;;;1565822;74;808;-67
2022/05/04 01:27:31;;;;;;;;;;;23.50;42.60;;;;;;1567056;74;770;-69
2022/05/04 01:29:33;;;;;;;;;;;23.50;42.50;;;;;;1564279;74;1145;-69
2022/05/04 01:31:35;;;;;;;;;;;23.50;42.50;;;;;;1566674;74;698;-69
2022/05/04 01:33:37;;;;;;;;;;;23.50;42.50;;;;;;1570180;74;1940;-67
2022/05/04 01:35:39;;;;;;;;;;;23.50;42.60;;;;;;1565889;76;750;-67
2022/05/04 01:37:41;;;;;;;;;;;23.50;42.50;;;;;;1559175;76;1575;-67
2022/05/04 01:39:43;;;;;;;;;;;23.50;42.50;;;;;;1566571;74;1100;-67
2022/05/04 01:42:03;;;;;;;;;;;23.50;42.60;;;;;;1566914;76;794;-66
2022/05/04 01:44:05;;;;;;;;;;;23.50;42.60;;;;;;1566713;74;611;-68
2022/05/04 01:46:07;;;;;;;;;;;23.50;42.50;;;;;;1567151;74;723;-69
2022/05/04 01:48:09;;;;;;;;;;;23.40;42.40;;;;;;1571656;74;727;-69
2022/05/04 01:50:11;;;;;;;;;;;23.50;42.60;;;;;;1564492;74;1105;-70
2022/05/04 01:52:13;;;;;;;;;;;23.50;42.60;;;;;;1565987;74;1613;-68
2022/05/04 01:54:15;;;;;;;;;;;23.50;42.60;;;;;;1565529;76;1920;-68
2022/05/04 01:56:17;;;;;;;;;;;23.50;42.60;;;;;;1566691;75;704;-68
2022/05/04 01:58:18;;;;;;;;;;;23.50;42.60;;;;;;1564839;74;730;-67
2022/05/04 02:00:20;;;;;;;;;;;23.40;42.40;;;;;;1566166;74;1127;-68
2022/05/04 02:02:22;;;;;;;;;;;23.50;42.60;;;;;;1567558;74;690;-66
2022/05/04 02:04:24;;;;;;;;;;;23.50;42.50;;;;;;1571096;74;1467;-68
2022/05/04 02:06:26;;;;;;;;;;;23.50;42.60;;;;;;1561996;74;710;-66
2022/05/04 02:08:29;;;;;;;;;;;23.40;42.40;;;;;;1565482;74;744;-69
2022/05/04 02:10:30;;;;;;;;;;;23.50;42.60;;;;;;1564073;74;1024;-69
2022/05/04 02:12:34;;;;;;;;;;;23.50;42.60;;;;;;1564579;76;721;-68
2022/05/04 02:14:36;;;;;;;;;;;23.50;42.60;;;;;;1567265;74;2019;-68
2022/05/04 02:16:38;;;;;;;;;;;23.50;42.60;;;;;;1566691;74;754;-68
2022/05/04 02:18:40;;;;;;;;;;;23.40;42.50;;;;;;1566694;74;1434;-65
2022/05/04 02:20:42;;;;;;;;;;;23.50;42.70;;;;;;1567686;74;711;-69
2022/05/04 02:22:43;;;;;;;;;;;23.40;42.60;;;;;;1566959;76;636;-68
2022/05/04 02:24:45;;;;;;;;;;;23.50;42.70;;;;;;1566301;76;812;-69
2022/05/04 02:26:47;;;;;;;;;;;23.50;42.70;;;;;;1565263;74;743;-74
2022/05/04 02:28:49;;;;;;;;;;;23.50;42.70;;;;;;1567238;74;1116;-69
2022/05/04 02:30:51;;;;;;;;;;;23.50;42.70;;;;;;1568515;76;659;-70
2022/05/04 02:32:53;;;;;;;;;;;23.50;42.60;;;;;;1572647;74;1932;-72
2022/05/04 02:39:34;;;;;;;;;;;23.50;42.60;;;;;;1557296;74;1646;-68
2022/05/04 02:41:36;;;;;;;;;;;23.50;42.60;;;;;;1566621;76;807;-69
2022/05/04 02:43:38;;;;;;;;;;;23.50;42.60;;;;;;1565432;74;695;-72
2022/05/04 02:45:40;;;;;;;;;;;23.60;42.70;;;;;;1567396;74;714;-68
2022/05/04 02:47:42;;;;;;;;;;;23.60;42.60;;;;;;1569408;74;1583;-69
2022/05/04 02:49:44;;;;;;;;;;;23.60;42.60;;;;;;1566420;74;1125;-71
2022/05/04 02:51:45;;;;;;;;;;;23.60;42.60;;;;;;1566014;74;749;-71
2022/05/04 02:53:47;;;;;;;;;;;23.60;42.60;;;;;;1566147;76;1936;-72
2022/05/04 02:55:49;;;;;;;;;;;23.60;42.60;;;;;;1565522;76;703;-70
2022/05/04 02:57:51;;;;;;;;;;;23.60;42.60;;;;;;1566382;74;751;-68
2022/05/04 02:59:53;;;;;;;;;;;23.60;42.60;;;;;;1564883;74;1136;-70
2022/05/04 03:04:15;;;;;;;;;;;23.70;42.70;;;;;;1572393;74;1645;-68
2022/05/04 03:06:17;;;;;;;;;;;23.70;42.70;;;;;;1564812;76;785;-69
2022/05/04 03:08:18;;;;;;;;;;;23.70;42.60;;;;;;1566997;75;797;-65
2022/05/04 03:10:20;;;;;;;;;;;23.70;42.60;;;;;;1564837;76;1158;-67
2022/05/04 03:12:22;;;;;;;;;;;23.70;42.70;;;;;;1566967;76;693;-67
2022/05/04 03:14:25;;;;;;;;;;;23.70;42.70;;;;;;1566495;74;1938;-67
2022/05/04 03:16:27;;;;;;;;;;;23.70;42.60;;;;;;1565785;76;1285;-66
2022/05/04 03:18:29;;;;;;;;;;;23.70;42.60;;;;;;1572202;74;1093;-66
2022/05/04 03:20:31;;;;;;;;;;;23.70;42.60;;;;;;1567303;74;1074;-66
2022/05/04 03:22:33;;;;;;;;;;;23.80;42.60;;;;;;1566930;75;781;-66
2022/05/04 03:24:34;;;;;;;;;;;23.80;42.50;;;;;;1566893;75;692;-67
2022/05/04 03:26:36;;;;;;;;;;;23.80;42.50;;;;;;1565743;74;758;-70
2022/05/04 03:28:38;;;;;;;;;;;23.80;42.50;;;;;;1568177;74;1105;-72
2022/05/04 03:30:40;;;;;;;;;;;23.90;42.60;;;;;;1566432;74;1792;-66
2022/05/04 03:32:42;;;;;;;;;;;23.80;42.50;;;;;;1579002;74;681;-68
2022/05/04 03:34:44;;;;;;;;;;;23.80;42.60;;;;;;1567408;74;1918;-67
2022/05/04 03:36:46;;;;;;;;;;;23.80;42.60;;;;;;1567107;75;769;-68
2022/05/04 03:38:47;;;;;;;;;;;23.80;42.60;;;;;;1556757;75;1129;-70
2022/05/04 03:40:49;;;;;;;;;;;23.70;42.60;;;;;;1566845;76;658;-70
2022/05/04 03:42:52;;;;;;;;;;;23.70;42.60;;;;;;1556878;76;1462;-71
2022/05/04 03:44:55;;;;;;;;;;;23.70;42.60;;;;;;1565773;74;746;-68
2022/05/04 03:46:57;;;;;;;;;;;23.70;42.60;;;;;;1570659;74;699;-68
2022/05/04 03:48:58;;;;;;;;;;;23.70;42.70;;;;;;1569993;74;1125;-70
2022/05/04 03:51:00;;;;;;;;;;;23.70;42.70;;;;;;1567970;74;710;-69
2022/05/04 03:53:02;;;;;;;;;;;23.70;42.70;;;;;;1565328;76;719;-71
2022/05/04 03:55:04;;;;;;;;;;;23.70;42.70;;;;;;1566171;76;1930;-68
2022/05/04 03:57:07;;;;;;;;;;;23.70;42.80;;;;;;1562586;74;1458;-69
2022/05/04 03:59:09;;;;;;;;;;;23.70;42.70;;;;;;1566130;74;1103;-69
2022/05/04 04:01:11;;;;;;;;;;;23.70;42.70;;;;;;1558732;76;911;-66
2022/05/04 04:03:13;;;;;;;;;;;23.70;42.80;;;;;;1555907;76;777;-66
2022/05/04 04:05:15;;;;;;;;;;;23.70;42.80;;;;;;1559234;76;563;-66
2022/05/04 04:07:17;;;;;;;;;;;23.70;42.80;;;;;;1561926;76;772;-68
2022/05/04 04:09:19;;;;;;;;;;;23.60;42.80;;;;;;1563666;74;1294;-70
2022/05/04 04:11:21;;;;;;;;;;;23.60;42.70;;;;;;1568155;76;1403;-67
2022/05/04 04:13:23;;;;;;;;;;;23.60;42.70;;;;;;1565755;74;1922;-67
2022/05/04 04:15:24;;;;;;;;;;;23.70;42.80;;;;;;1558273;76;689;-68
2022/05/04 04:17:26;;;;;;;;;;;23.70;42.80;;;;;;1573124;74;757;-68
2022/05/04 04:19:28;;;;;;;;;;;23.70;42.80;;;;;;1569975;74;1138;-72
2022/05/04 04:23:50;;;;;;;;;;;23.60;42.80;;;;;;1561177;74;1670;-67
2022/05/04 04:25:52;;;;;;;;;;;23.60;42.80;;;;;;1554716;76;1547;-67
2022/05/04 04:27:54;;;;;;;;;;;23.60;42.80;;;;;;1565912;74;775;-67
2022/05/04 04:29:56;;;;;;;;;;;23.60;42.80;;;;;;1567363;74;1085;-68
2022/05/04 04:31:58;;;;;;;;;;;23.60;42.80;;;;;;1572135;74;776;-68
2022/05/04 04:34:01;;;;;;;;;;;23.70;43.10;;;;;;1559361;74;1914;-68
2022/05/04 04:36:03;;;;;;;;;;;23.70;43.10;;;;;;1562199;74;781;-68
2022/05/04 04:38:07;;;;;;;;;;;23.70;43.00;;;;;;1566729;75;585;-67
2022/05/04 04:40:08;;;;;;;;;;;23.70;43.10;;;;;;1567954;74;1477;-72
2022/05/04 04:42:12;;;;;;;;;;;23.70;43.00;;;;;;1566050;76;785;-68
2022/05/04 04:44:14;;;;;;;;;;;23.70;43.10;;;;;;1562067;76;2050;-67
2022/05/04 04:46:16;;;;;;;;;;;23.60;42.90;;;;;;1564961;74;720;-68
2022/05/04 04:48:18;;;;;;;;;;;23.60;42.90;;;;;;1573895;74;773;-67
2022/05/04 04:50:19;;;;;;;;;;;23.70;43.10;;;;;;1569291;74;1101;-67
2022/05/04 04:52:21;;;;;;;;;;;23.70;43.10;;;;;;1567140;74;694;-69
2022/05/04 04:54:23;;;;;;;;;;;23.70;43.20;;;;;;1564552;74;1930;-65
2022/05/04 04:56:25;;;;;;;;;;;23.90;43.10;;;;;;1561400;76;748;-67
2022/05/04 04:58:27;;;;;;;;;;;23.80;43.00;;;;;;1567096;76;756;-65
2022/05/04 05:00:29;;;;;;;;;;;23.80;42.90;;;;;;1566846;74;1073;-65
2022/05/04 05:02:31;;;;;;;;;;;23.90;43.10;;;;;;1572403;74;690;-66
2022/05/04 05:04:33;;;;;;;;;;;23.80;42.90;;;;;;1566825;76;724;-65
2022/05/04 05:06:35;;;;;;;;;;;23.80;42.80;;;;;;1565831;76;577;-65
2022/05/04 05:08:37;;;;;;;;;;;23.80;42.90;;;;;;1566350;75;1430;-64
2022/05/04 05:10:39;;;;;;;;;;;23.70;42.80;;;;;;1566147;76;762;-67
2022/05/04 05:12:41;;;;;;;;;;;23.80;42.80;;;;;;1564276;76;830;-66
2022/05/04 05:17:03;;;;;;;;;;;23.70;42.80;;;;;;1572211;74;576;-70
2022/05/04 05:19:05;;;;;;;;;;;23.70;42.80;;;;;;1572687;74;1187;-66
2022/05/04 05:21:07;;;;;;;;;;;23.70;42.80;;;;;;1559568;74;811;-67
2022/05/04 05:23:08;;;;;;;;;;;23.70;42.80;;;;;;1566642;74;1642;-70
2022/05/04 05:25:10;;;;;;;;;;;23.70;42.80;;;;;;1565387;76;687;-67
2022/05/04 05:27:12;;;;;;;;;;;23.70;42.80;;;;;;1564343;76;731;-67
2022/05/04 05:29:14;;;;;;;;;;;23.70;42.80;;;;;;1564353;74;1234;-67
2022/05/04 05:31:16;;;;;;;;;;;23.70;42.80;;;;;;1566999;74;754;-69
2022/05/04 05:33:18;;;;;;;;;;;23.70;42.70;;;;;;1568754;74;703;-67
2022/05/04 05:35:20;;;;;;;;;;;23.80;42.70;;;;;;1558403;75;1922;-67
2022/05/04 05:37:22;;;;;;;;;;;23.70;42.80;;;;;;1567760;76;733;-70
2022/05/04 05:39:24;;;;;;;;;;;23.70;42.70;;;;;;1577985;73;1182;-65
2022/05/04 05:41:26;;;;;;;;;;;23.70;42.70;;;;;;1567209;74;1431;-67
2022/05/04 05:43:28;;;;;;;;;;;23.80;42.80;;;;;;1566632;74;750;-66
2022/05/04 05:45:30;;;;;;;;;;;23.80;42.80;;;;;;1565814;76;731;-67
2022/05/04 05:47:32;;;;;;;;;;;23.90;42.80;;;;;;1570669;74;788;-67
2022/05/04 05:49:34;;;;;;;;;;;23.90;42.90;;;;;;1568014;74;1174;-68
2022/05/04 05:51:35;;;;;;;;;;;24.00;42.80;;;;;;1566427;76;699;-66
2022/05/04 05:53:37;;;;;;;;;;;24.00;42.60;;;;;;1566430;76;736;-69
2022/05/04 05:55:39;;;;;;;;;;;24.00;42.40;;;;;;1565727;76;1939;-70
2022/05/04 05:57:41;;;;;;;;;;;24.00;42.30;;;;;;1562755;76;748;-68
2022/05/04 05:59:43;;;;;;;;;;;24.00;42.20;;;;;;1567755;74;1136;-68
2022/05/04 06:01:45;;;;;;;;;;;24.00;42.00;;;;;;1573477;74;658;-68
2022/05/04 06:03:49;;;;;;;;;;;24.00;41.80;;;;;;1567500;76;702;-68
2022/05/04 06:05:50;;;;;;;;;;;24.20;41.80;;;;;;1567008;76;1929;-71
2022/05/04 06:07:52;;;;;;;;;;;24.10;41.60;;;;;;1566269;74;809;-68
2022/05/04 06:09:54;;;;;;;;;;;24.10;41.50;;;;;;1566816;74;1171;-68
2022/05/04 06:11:56;;;;;;;;;;;24.10;41.40;;;;;;1566005;76;784;-69
2022/05/04 06:13:58;;;;;;;;;;;24.10;41.30;;;;;;1567837;74;688;-70
2022/05/04 06:16:00;;;;;;;;;;;24.10;41.20;;;;;;1564947;74;1946;-67
2022/05/04 06:18:02;;;;;;;;;;;24.20;41.10;;;;;;1569374;74;736;-68
2022/05/04 06:20:04;;;;;;;;;;;24.20;41.00;;;;;;1566719;74;1142;-67
2022/05/04 06:22:06;;;;;;;;;;;24.20;41.00;;;;;;1560904;76;766;-68
2022/05/04 06:24:08;;;;;;;;;;;24.20;40.70;;;;;;1562653;76;687;-68
2022/05/04 06:26:10;;;;;;;;;;;24.20;40.60;;;;;;1557812;76;695;-67
2022/05/04 06:28:13;;;;;;;;;;;24.20;40.50;;;;;;1566957;76;880;-68
2022/05/04 06:34:55;;;;;;;;;;;24.20;40.40;;;;;;1552451;76;1892;-67
2022/05/04 06:36:57;;;;;;;;;;;24.20;40.30;;;;;;1564587;76;771;-67
2022/05/04 06:38:59;;;;;;;;;;;24.20;40.20;;;;;;1567090;74;1223;-66
2022/05/04 06:41:00;;;;;;;;;;;24.10;40.10;;;;;;1566839;76;797;-67
2022/05/04 06:43:03;;;;;;;;;;;24.00;40.00;;;;;;1561353;76;738;-66
2022/05/04 06:45:05;;;;;;;;;;;24.00;40.10;;;;;;1559098;76;692;-67
2022/05/04 06:47:08;;;;;;;;;;;24.10;40.20;;;;;;1558999;76;725;-69
2022/05/04 06:49:10;;;;;;;;;;;24.10;40.20;;;;;;1567135;74;1162;-68
2022/05/04 06:51:12;;;;;;;;;;;24.10;40.30;;;;;;1566468;76;1404;-66
2022/05/04 06:53:14;;;;;;;;;;;24.00;40.20;;;;;;1564916;76;762;-67
2022/05/04 06:55:17;;;;;;;;;;;24.00;40.20;;;;;;1563355;76;1932;-67
2022/05/04 06:57:19;;;;;;;;;;;24.00;40.20;;;;;;1562353;76;777;-66
2022/05/04 06:59:21;;;;;;;;;;;24.00;40.20;;;;;;1555321;74;1163;-64
2022/05/04 07:01:23;;;;;;;;;;;24.00;40.30;;;;;;1563291;74;692;-66
2022/05/04 07:03:25;;;;;;;;;;;24.00;40.30;;;;;;1566799;74;711;-66
2022/05/04 07:05:27;;;;;;;;;;;24.00;40.20;;;;;;1566771;74;715;-66
2022/05/04 07:07:29;;;;;;;;;;;23.90;40.30;;;;;;1565757;76;735;-68
2022/05/04 07:09:31;;;;;;;;;;;23.90;40.40;;;;;;1566186;73;223942;-58
2022/05/04 07:11:33;;;;;;;;;;;23.90;40.40;;;;;;1544654;75;707;-58
2022/05/04 07:13:34;;;;;;;;;;;23.90;40.40;;;;;;1541045;76;778;-57
2022/05/04 07:15:36;;;;;;;;;;;23.80;40.30;;;;;;1561038;75;1917;-57
2022/05/04 07:17:38;;;;;;;;;;;23.80;40.30;;;;;;1541101;76;790;-58
2022/05/04 07:19:40;;;;;;;;;;;23.80;40.30;;;;;;1536707;75;1171;-58
2022/05/04 07:21:45;;;;;;;;;;;23.80;40.30;;;;;;1572161;74;826;-56
2022/05/04 07:23:47;;;;;;;;;;;23.80;40.30;;;;;;1527354;76;814;-60
2022/05/04 07:25:49;;;;;;;;;;;23.80;40.30;;;;;;1550538;75;718;-56
2022/05/04 07:27:51;;;;;;;;;;;23.70;40.20;;;;;;1551716;75;1504;-58
2022/05/04 07:29:53;;;;;;;;;;;23.70;40.10;;;;;;1548200;75;1128;-57
2022/05/04 07:31:55;;;;;;;;;;;23.70;40.10;;;;;;1540944;76;848;-56
2022/05/04 07:33:56;;;;;;;;;;;23.70;40.20;;;;;;1550052;76;881;-57
2022/05/04 07:35:58;;;;;;;;;;;23.70;40.20;;;;;;1551072;76;1904;-60
2022/05/04 07:38:00;;;;;;;;;;;23.70;40.20;;;;;;1547420;75;761;-58
2022/05/04 07:42:24;;;;;;;;;;;23.60;40.00;;;;;;1547919;76;1613;-55
2022/05/04 07:44:25;;;;;;;;;;;23.60;40.00;;;;;;1547556;75;708;-60
2022/05/04 07:46:27;;;;;;;;;;;23.60;40.00;;;;;;1561785;75;743;-59
2022/05/04 07:48:29;;;;;;;;;;;23.60;40.00;;;;;;1546738;76;1460;-56
2022/05/04 07:50:31;;;;;;;;;;;23.60;40.00;;;;;;1555536;75;1117;-56
2022/05/04 07:52:33;;;;;;;;;;;23.60;40.00;;;;;;1558665;76;738;-56
2022/05/04 07:54:35;;;;;;;;;;;23.60;40.10;;;;;;1554766;76;699;-57
2022/05/04 07:56:37;;;;;;;;;;;23.60;40.10;;;;;;1555504;76;1939;-57
2022/05/04 07:58:38;;;;;;;;;;;23.60;40.10;;;;;;1550555;76;776;-57
2022/05/04 08:05:20;;;;;;;;;;;23.50;40.10;;;;;;1546477;76;790;-57
2022/05/04 08:07:22;;;;;;;;;;;23.50;40.00;;;;;;1550807;76;700;-57
2022/05/04 08:09:23;;;;;;;;;;;23.50;40.00;;;;;;1553376;75;1179;-58
2022/05/04 08:11:25;;;;;;;;;;;23.50;40.10;;;;;;1546559;76;791;-58
2022/05/04 08:13:27;;;;;;;;;;;23.50;40.20;;;;;;1552046;76;760;-57
2022/05/04 08:15:30;;;;;;;;;;;23.50;40.10;;;;;;1559468;75;1939;-56
2022/05/04 08:17:32;;;;;;;;;;;23.50;40.10;;;;;;1551123;76;791;-58
2022/05/04 08:19:34;;;;;;;;;;;23.50;40.20;;;;;;1543995;75;1133;-56
2022/05/04 08:21:37;;;;;;;;;;;23.50;40.20;;;;;;1566161;75;793;-57
2022/05/04 08:23:40;;;;;;;;;;;23.50;40.20;;;;;;1536740;76;745;-58
2022/05/04 08:25:42;;;;;;;;;;;23.50;40.20;;;;;;1550851;75;1703;-57
2022/05/04 08:27:44;;;;;;;;;;;23.50;40.30;;;;;;1563954;75;878;-57
2022/05/04 08:29:46;;;;;;;;;;;23.60;40.30;;;;;;1571016;73;1130;-59
2022/05/04 08:31:48;;;;;;;;;;;23.60;40.30;;;;;;1558054;76;739;-57
2022/05/04 08:33:50;;;;;;;;;;;23.60;40.20;;;;;;1541920;76;691;-57
2022/05/04 08:35:52;;;;;;;;;;;23.60;40.20;;;;;;1549291;76;1954;-57
2022/05/04 08:37:54;;;;;;;;;;;23.50;40.20;;;;;;1556935;75;781;-58
2022/05/04 08:39:56;;;;;;;;;;;23.60;40.30;;;;;;1537111;75;1131;-59
2022/05/04 08:41:59;;;;;;;;;;;23.60;40.20;;;;;;1539358;76;654;-59
2022/05/04 08:44:03;;;;;;;;;;;23.60;40.20;;;;;;1539103;75;1442;-57
2022/05/04 08:46:05;;;;;;;;;;;23.60;40.20;;;;;;1554431;75;853;-57
2022/05/04 08:48:08;;;;;;;;;;;23.60;40.20;;;;;;1539801;76;711;-57
2022/05/04 08:50:11;;;;;;;;;;;23.60;40.10;;;;;;1546447;76;1145;-55
2022/05/04 08:52:13;;;;;;;;;;;23.60;40.20;;;;;;1552795;76;723;-56
2022/05/04 08:54:14;;;;;;;;;;;23.60;40.20;;;;;;1543726;76;791;-55
2022/05/04 08:56:17;;;;;;;;;;;23.60;40.20;;;;;;1555997;76;1928;-56
2022/05/04 08:58:18;;;;;;;;;;;23.70;40.50;;;;;;1534531;76;707;-56
2022/05/04 09:00:20;;;;;;;;;;;23.70;40.50;;;;;;1540888;75;1118;-58
2022/05/04 09:02:22;;;;;;;;;;;23.70;40.50;;;;;;1547503;76;688;-56
2022/05/04 09:04:24;;;;;;;;;;;23.60;40.40;;;;;;1544186;76;828;-57
2022/05/04 09:06:27;;;;;;;;;;;23.60;40.40;;;;;;1543272;76;747;-56
2022/05/04 09:08:29;;;;;;;;;;;23.70;40.60;;;;;;1548998;76;719;-55
2022/05/04 09:10:34;;;;;;;;;;;23.70;40.50;;;;;;1560192;75;1179;-55
2022/05/04 09:12:36;;;;;;;;;;;23.70;40.60;;;;;;1556349;76;702;-59
2022/05/04 09:14:38;;;;;;;;;;;23.70;40.40;;;;;;1565278;75;793;-61
2022/05/04 09:16:40;;;;;;;;;;;23.70;40.40;;;;;;1527593;77;1928;-60
2022/05/04 09:18:43;;;;;;;;;;;23.70;40.30;;;;;;1553233;76;771;-60
2022/05/04 09:20:52;;;;;;;;;;;23.70;40.10;;;;;;1558411;75;1593;-58
2022/05/04 09:22:53;;;;;;;;;;;23.80;40.00;;;;;;1556211;76;1631;-59
2022/05/04 09:24:57;;;;;;;;;;;23.80;39.70;;;;;;1552748;76;805;-60
2022/05/04 09:26:58;;;;;;;;;;;23.70;39.70;;;;;;1558746;75;1658;-58
2022/05/04 09:29:06;;;;;;;;;;;23.70;39.80;;;;;;1557702;75;814;-58
2022/05/04 09:31:07;;;;;;;;;;;23.60;39.80;;;;;;1552144;75;1388;-59
2022/05/04 09:33:11;;;;;;;;;;;23.70;39.80;;;;;;1541749;76;732;-58
2022/05/04 09:35:16;;;;;;;;;;;23.80;39.80;;;;;;1537485;76;1936;-58
2022/05/04 09:44:55;;;;;;;;;;;23.50;39.60;;;;;;1560134;75;1660;-59
2022/05/04 09:46:56;;;;;;;;;;;23.50;40.00;;;;;;1546866;76;765;-59
2022/05/04 09:48:58;;;;;;;;;;;23.50;40.00;;;;;;1552535;75;788;-59
2022/05/04 09:51:04;;;;;;;;;;;23.40;39.90;;;;;;1558630;75;1082;-59
2022/05/04 09:53:06;;;;;;;;;;;23.40;40.00;;;;;;1546559;76;733;-58
2022/05/04 09:55:17;;;;;;;;;;;23.40;40.10;;;;;;1550479;76;783;-59
2022/05/04 09:57:20;;;;;;;;;;;23.50;40.50;;;;;;1534296;76;700;-59
2022/05/04 09:59:23;;;;;;;;;;;23.50;40.20;;;;;;1553150;75;1133;-59
2022/05/04 10:01:24;;;;;;;;;;;23.50;40.40;;;;;;1545918;76;791;-60
2022/05/04 10:03:26;;;;;;;;;;;23.50;40.20;;;;;;1547094;76;730;-59
2022/05/04 10:05:28;;;;;;;;;;;23.40;40.00;;;;;;1552455;75;738;-60
2022/05/04 10:07:30;;;;;;;;;;;23.40;40.00;;;;;;1546783;76;756;-56
2022/05/04 10:09:32;;;;;;;;;;;23.50;40.00;;;;;;1548485;76;1075;-58
2022/05/04 10:11:35;;;;;;;;;;;23.40;39.80;;;;;;1545115;76;736;-57
2022/05/04 10:13:38;;;;;;;;;;;23.40;39.70;;;;;;1557423;75;709;-59
2022/05/04 10:15:40;;;;;;;;;;;23.40;39.80;;;;;;1555213;75;1905;-58
2022/05/04 10:17:43;;;;;;;;;;;23.40;39.80;;;;;;1552701;75;1554;-57
2022/05/04 10:19:47;;;;;;;;;;;23.30;39.70;;;;;;1544042;75;2112;-58
2022/05/04 10:21:50;;;;;;;;;;;23.30;39.80;;;;;;1549273;75;710;-58
2022/05/04 10:23:53;;;;;;;;;;;23.40;40.00;;;;;;1556777;76;882;-59
2022/05/04 10:25:57;;;;;;;;;;;23.30;40.00;;;;;;1543783;76;1844;-58
2022/05/04 10:28:06;;;;;;;;;;;23.30;40.30;;;;;;1557407;75;1288;-57
2022/05/04 10:32:38;;;;;;;;;;;23.30;40.20;;;;;;1551424;76;1666;-58
2022/05/04 10:34:42;;;;;;;;;;;23.30;40.20;;;;;;1541588;76;683;-54
2022/05/04 10:36:47;;;;;;;;;;;23.30;40.20;;;;;;1545623;76;1939;-59
2022/05/04 10:38:52;;;;;;;;;;;23.30;40.40;;;;;;1559428;76;798;-56
2022/05/04 10:40:55;;;;;;;;;;;23.30;40.40;;;;;;1563038;74;1158;-55
2022/05/04 10:42:57;;;;;;;;;;;23.20;40.40;;;;;;1557461;75;773;-56
2022/05/04 10:44:59;;;;;;;;;;;23.20;40.50;;;;;;1538869;75;783;-58
2022/05/04 10:47:01;;;;;;;;;;;23.20;40.50;;;;;;1544952;76;727;-57
2022/05/04 10:49:03;;;;;;;;;;;23.20;40.60;;;;;;1538394;76;687;-59
2022/05/04 10:51:08;;;;;;;;;;;23.20;40.50;;;;;;1547546;75;1084;-56
2022/05/04 10:53:11;;;;;;;;;;;23.20;40.60;;;;;;1550506;76;1818;-58
2022/05/04 10:55:13;;;;;;;;;;;23.20;40.60;;;;;;1539962;76;1893;-59
2022/05/04 10:57:15;;;;;;;;;;;23.20;40.70;;;;;;1542816;76;1952;-58
2022/05/04 10:59:34;;;;;;;;;;;23.20;40.60;;;;;;1563117;73;1137;-56
2022/05/04 11:01:37;;;;;;;;;;;23.20;40.50;;;;;;1544659;75;802;-58
2022/05/04 11:03:40;;;;;;;;;;;23.20;40.30;;;;;;1536717;76;662;-58
2022/05/04 11:05:47;;;;;;;;;;;23.20;40.40;;;;;;1545800;75;1862;-57
2022/05/04 11:07:49;;;;;;;;;;;23.20;39.60;;;;;;1543218;76;798;-57
2022/05/04 11:09:51;;;;;;;;;;;23.10;40.00;;;;;;1547127;75;1116;-56
2022/05/04 11:11:53;;;;;;;;;;;23.00;39.80;;;;;;1564610;76;772;-58
2022/05/04 11:13:55;;;;;;;;;;;23.00;39.80;;;;;;1552660;75;1402;-57
2022/05/04 11:15:58;;;;;;;;;;;23.00;40.00;;;;;;1562474;75;1949;-59
2022/05/04 11:18:00;;;;;;;;;;;23.00;39.90;;;;;;1544839;75;773;-56
2022/05/04 11:20:02;;;;;;;;;;;23.20;40.10;;;;;;1544308;75;1192;-57
2022/05/04 11:22:04;;;;;;;;;;;23.10;39.90;;;;;;1550611;76;691;-58
2022/05/04 11:24:06;;;;;;;;;;;23.10;40.00;;;;;;1548169;76;628;-58
2022/05/04 11:26:10;;;;;;;;;;;23.10;40.10;;;;;;1558511;76;777;-58
2022/05/04 11:28:12;;;;;;;;;;;23.00;40.10;;;;;;1552392;75;1665;-58
2022/05/04 11:30:14;;;;;;;;;;;23.10;40.30;;;;;;1537149;76;1163;-57
2022/05/04 11:32:19;;;;;;;;;;;23.00;40.10;;;;;;1549705;76;1484;-58
2022/05/04 11:34:19;;;;;;;;;;;23.00;40.20;;;;;;1549516;76;1604;-58
2022/05/04 11:36:21;;;;;;;;;;;23.10;40.40;;;;;;1551548;75;1935;-55
2022/05/04 11:38:23;;;;;;;;;;;23.10;40.40;;;;;;1542727;75;738;-58
2022/05/04 11:40:25;;;;;;;;;;;23.20;40.40;;;;;;1543221;75;1141;-57
2022/05/04 11:42:27;;;;;;;;;;;23.10;40.30;;;;;;1544144;75;710;-57
2022/05/04 11:44:29;;;;;;;;;;;23.20;40.30;;;;;;1562581;75;673;-58
2022/05/04 11:46:31;;;;;;;;;;;23.20;40.30;;;;;;1545531;76;731;-57
2022/05/04 11:48:35;;;;;;;;;;;23.20;40.30;;;;;;1539896;76;682;-58
2022/05/04 11:50:36;;;;;;;;;;;23.20;40.20;;;;;;1543255;75;1151;-55
2022/05/04 11:52:40;;;;;;;;;;;23.20;39.70;;;;;;1546170;76;742;-58
2022/05/04 11:54:43;;;;;;;;;;;23.20;39.00;;;;;;1556804;76;1645;-59
2022/05/04 11:56:45;;;;;;;;;;;23.20;39.40;;;;;;1541218;75;1955;-58
2022/05/04 11:58:48;;;;;;;;;;;23.10;39.00;;;;;;1550284;76;629;-57
2022/05/04 12:00:49;;;;;;;;;;;23.10;39.00;;;;;;1563989;74;1087;-56
2022/05/04 12:02:51;;;;;;;;;;;23.10;39.20;;;;;;1542638;75;643;-54
2022/05/04 12:04:53;;;;;;;;;;;23.10;39.20;;;;;;1556978;75;701;-59
2022/05/04 12:06:57;;;;;;;;;;;23.10;38.90;;;;;;1553929;76;732;-57
2022/05/04 12:08:59;;;;;;;;;;;23.10;38.80;;;;;;1546061;76;989;-58
2022/05/04 12:11:01;;;;;;;;;;;23.20;38.20;;;;;;1550959;75;1482;-59
2022/05/04 12:13:03;;;;;;;;;;;23.20;38.80;;;;;;1551396;76;812;-61
2022/05/04 12:15:06;;;;;;;;;;;23.20;38.60;;;;;;1557795;75;774;-58
2022/05/04 12:17:09;;;;;;;;;;;23.10;38.60;;;;;;1553202;76;1899;-58
2022/05/04 12:19:11;;;;;;;;;;;23.10;38.50;;;;;;1560292;75;1195;-60
2022/05/04 12:21:14;;;;;;;;;;;23.10;38.60;;;;;;1553670;76;775;-56
2022/05/04 12:23:16;;;;;;;;;;;23.20;38.60;;;;;;1550493;76;1544;-57
2022/05/04 12:25:20;;;;;;;;;;;23.10;38.30;;;;;;1555139;75;709;-57
2022/05/04 12:27:22;;;;;;;;;;;23.20;38.30;;;;;;1546260;76;1019;-58
2022/05/04 12:34:03;;;;;;;;;;;23.30;38.10;;;;;;1557185;76;832;-58
2022/05/04 12:36:07;;;;;;;;;;;23.10;38.10;;;;;;1551369;76;738;-56
2022/05/04 12:38:10;;;;;;;;;;;23.20;38.10;;;;;;1546657;75;1911;-58
2022/05/04 12:40:12;;;;;;;;;;;23.20;38.10;;;;;;1543280;75;1144;-56
2022/05/04 12:42:15;;;;;;;;;;;23.20;38.10;;;;;;1543578;76;619;-60
2022/05/04 12:44:17;;;;;;;;;;;23.20;38.10;;;;;;1562250;75;685;-59
2022/05/04 12:46:24;;;;;;;;;;;23.20;38.10;;;;;;1540141;76;849;-59
2022/05/04 12:48:25;;;;;;;;;;;23.20;38.20;;;;;;1544152;75;2064;-56